CheckWX is a tool to help pilots better visualize weather data.  It is not intended as a substitute for an official pre-flight weather briefing.

16:05:51 UTC

KLAW TAF
Lawton-Fort Sill Regional Airport
Lawton, Oklahoma, USA
KLAW 191131Z 1912/2012 05005KT P6SM FEW250 FM191800 14012KT P6SM SCT250 FM200400 15013KT P6SM BKN250 WS015/18030KT

Nov-19@
12:00 UTC

Nov-19 @ 12:00 UTC

Nov-19@
18:00 UTC

Nov-19 @ 18:00 UTC

KLAW 191131Z 1912/2012 05005KT P6SM FEW250
Wind
  • 050° at 5 KTS
Cloud Levels
  • Few at 25,000' AGL

Nov-19@
18:00 UTC

Nov-19 @ 18:00 UTC

Nov-20@
04:00 UTC

Nov-20 @ 04:00 UTC

FM191800 14012KT P6SM SCT250

From

From Standard forecast or significant change

Wind
  • 140° at 12 KTS
Cloud Levels
  • Scattered at 25,000' AGL

Nov-20@
04:00 UTC

Nov-20 @ 04:00 UTC

Nov-20@
12:00 UTC

Nov-20 @ 12:00 UTC

FM200400 15013KT P6SM BKN250 WS015/18030KT

From

From Standard forecast or significant change

Wind
  • 150° at 13 KTS
Cloud Levels
  • Broken at 25,000' AGL